Nathrop, CO

3:17 AM MST on February 13, 2016 (GMT -0700)
Saint Elmo Ghost Town 10052 ft | | Change Station
CLOSE
Current Station
Personal Weather Station
Location: St. Elmo, CO
Elevation: 10052 ft
Nearby Weather Stations

Elev 10052 ft 38.71 °N, 106.35 °W | Updated 11 minutes ago

Clear
Clear
--
Feels Like --
N
1.0
Wind Variable Wind from NNW
Gusts 3.0 mph

Today
High -- | Low -- °F
--% Chance of Precip.
Yesterday
High -- | Low -- °F
Precip. -- in
Pressure 30.29 in
Visibility 10.0 miles
Clouds Clear
Dew Point --
Humidity 69%
Rainfall Not available.
Snow Depth Not available.
6:59 AM 5:40 PM
Waxing Crescent, 29% visible
METAR KAEJ 130955Z AUTO 26003KT 10SM CLR M03/M06 A3029 RMK AO2 T10271056
Pressure 30.29 in
Visibility 10.0 miles
Clouds Clear
Dew Point --
Humidity 69%
Rainfall Not available.
Snow Depth Not available.
6:59 AM 5:40 PM
Waxing Crescent, 29% visible
METAR KAEJ 130955Z AUTO 26003KT 10SM CLR M03/M06 A3029 RMK AO2 T10271056

10-Day Weather Forecast

Almanac

Astronomy

Feb. 13, 2016 Rise Set
Actual Time
Civil Twilight
Nautical Twilight
Astronomical Twilight
Moon
Length of Visible Light
Length of Day
Tomorrow will be .
, % of the Moon is Illuminated

Today's Extremes

State Highs State Lows

Community

WunderPhotos

Upload Photos

1,892,536 photos uploaded!

WunderBlog® & News

Nearby

Air Quality

  Air Quality AQ Index Pollutant
Not available.

Snow Depth

Station Depth Elevation

Earthquake Activity

City Distance Mag. Time & Date
Minimum magnitude displayed is 2.5.

Coastal Water Temperatures

Place Temperature

Stations

Nearby Weather Stations

Station Location Temp. Windchill Dew Point Humidity Wind Precip. Elev Updated Type
                   

Watches & Warnings

There are currently no watches in effect.